Flight Track Log - Related Links

Times and Time Zones

All times are in EDT time to prevent confusion due to time zone crossing. See the UAL5908 flight status page for this flight to view local times or setup timezone preferences in your user account.

Time Position Orientation Groundspeed Altitude Reporting Facility
EDT Latitude Longitude Course Direction KTS MPH feet Rate Location/Type
Mon 05:08:49 PM 42.3667 -70.9833 240° Southwest 148 170 700  Level KA90
Mon 05:09:43 PM 42.3667 -70.9167 90° East 201 231 3,000 2,947 Climbing KA90
Mon 05:10:43 PM 42.3833 -70.8333 75° East 233 268 6,300 2,813 Climbing KA90
Mon 05:11:00 PM 42.4071 -70.7404 144° Southeast  Level FlightAware Approximate
Mon 05:11:51 PM 42.3794 -70.7508 94° East 259 298 9,000  Level Boston Center
Mon 05:12:00 PM 42.3188 -70.7204 172° South  Level FlightAware Approximate
Mon 05:12:51 PM 42.3103 -70.7247 164° South 229 264 10,900  Level Boston Center
Mon 05:13:00 PM 42.2519 -70.7887 228° Southwest  Level FlightAware Approximate
Mon 05:13:51 PM 42.2364 -70.7914 214° Southwest 229 264 13,100  Level Boston Center
Mon 05:14:00 PM 42.2018 -70.8902 240° Southwest  Level FlightAware Approximate
Mon 05:14:51 PM 42.2089 -70.9208 254° West 265 305 15,300  Level Boston Center
Mon 05:15:51 PM 42.2042 -71.0386 267° West 325 374 17,700 1,650 Climbing Boston Center
Mon 05:16:51 PM 42.2017 -71.1817 269° West 346 398 18,600 1,000 Climbing Boston Center
Mon 05:17:51 PM 42.2031 -71.3133 271° West 373 429 19,700 1,350 Climbing Boston Center
Mon 05:18:51 PM 42.2003 -71.4536 269° West 378 435 21,300 1,800 Climbing Boston Center
Mon 05:19:51 PM 42.1950 -71.5939 267° West 384 442 23,300 2,200 Climbing Boston Center
Mon 05:20:51 PM 42.1897 -71.7283 267° West 379 436 25,700 2,700 Climbing Boston Center
Mon 05:21:51 PM 42.1717 -71.8461 258° West 353 406 28,700 2,600 Climbing Boston Center
Mon 05:22:51 PM 42.1556 -71.9472 258° West 312 359 30,900 1,650 Climbing Boston Center
Mon 05:23:51 PM 42.1372 -72.0508 257° West 295 339 32,000 550 Climbing Boston Center
Mon 05:24:51 PM 42.1186 -72.1658 258° West 298 343 32,000  Level Boston Center
Mon 05:25:51 PM 42.0961 -72.2861 256° West 319 367 32,000  Level Boston Center
Mon 05:26:51 PM 42.0731 -72.4178 257° West 339 390 32,000  Level Boston Center
Mon 05:27:51 PM 42.0503 -72.5519 257° West 346 398 32,000  Level Boston Center
Mon 05:28:51 PM 42.0314 -72.6608 257° West 346 398 32,000  Level Boston Center
Mon 05:29:51 PM 42.0081 -72.7839 256° West 346 398 32,000  Level Boston Center
Mon 05:30:51 PM 41.9847 -72.9122 256° West 346 398 32,000  Level Boston Center
Mon 05:31:51 PM 41.9569 -73.0542 255° West 360 414 32,000  Level Boston Center
Mon 05:32:51 PM 41.9353 -73.1825 257° West 360 414 32,000 -250 Level Boston Center
Mon 05:33:51 PM 41.9136 -73.3078 257° West 354 407 31,500 -750 Descending Boston Center
Mon 05:34:51 PM 41.8894 -73.4383 256° West 359 413 30,500 -750 Descending Boston Center
Mon 05:35:51 PM 41.8633 -73.5719 255° West 365 420 30,000 -50 Descending Boston Center
Mon 05:36:51 PM 41.8203 -73.6964 245° Southwest 371 427 30,400 700 Climbing Boston Center
Mon 05:37:51 PM 41.7467 -73.7672 216° Southwest 322 371 31,400 527 Climbing Boston Center
Mon 05:39:53 PM 41.6053 -73.9061 216° Southwest 348 400 32,000 200 Climbing New York Center
Mon 05:40:51 PM 41.5161 -73.9683 208° Southwest 348 400 32,000  Level New York Center
Mon 05:41:52 PM 41.4194 -73.9969 193° South 348 400 32,000  Level New York Center
Mon 05:42:52 PM 41.3208 -74.0281 193° South 353 406 32,000 -446 Level New York Center
Mon 05:43:53 PM 41.2242 -74.0564 192° South 364 419 31,100 -1,091 Descending New York Center
Mon 05:44:53 PM 41.1128 -74.0978 196° South 372 428 29,800 -1,169 Descending New York Center
Mon 05:45:51 PM 41.0197 -74.1400 199° South 372 428 28,800 -900 Descending New York Center
Mon 05:46:53 PM 40.9756 -74.2314 237° Southwest 321 369 28,000 -393 Descending New York Center
Mon 05:47:53 PM 40.9508 -74.3564 255° West 326 375 28,000  Level New York Center
Mon 05:48:52 PM 40.9242 -74.4814 254° West 342 394 28,000  Level New York Center
Mon 05:49:53 PM 40.9014 -74.6064 256° West 347 399 28,000  Level New York Center
Mon 05:50:53 PM 40.8642 -74.7222 247° West 347 399 28,000  Level New York Center
Mon 05:51:51 PM 40.8292 -74.8353 248° West 342 394 28,000  Level New York Center
Mon 05:52:51 PM 40.7936 -74.9567 249° West 349 402 28,000  Level New York Center
Mon 05:53:52 PM 40.7561 -75.0747 247° West 349 402 28,000  Level New York Center
Mon 05:54:53 PM 40.7133 -75.2144 248° West 357 411 28,000  Level New York Center
Mon 05:55:51 PM 40.6733 -75.3378 247° West 367 422 28,000 -559 Level New York Center
Mon 05:56:51 PM 40.6267 -75.4606 243° Southwest 372 428 26,900 -1,686 Descending New York Center
Mon 05:57:52 PM 40.5694 -75.5878 239° Southwest 382 440 24,600 -2,281 Descending New York Center
Mon 05:58:52 PM 40.5142 -75.7203 241° Southwest 396 456 22,300 -2,033 Descending New York Center
Mon 05:59:53 PM 40.4589 -75.8444 240° Southwest 407 468 20,500 -1,160 Descending New York Center
Mon 06:00:51 PM 40.3853 -75.9564 229° Southwest 407 468 20,000 -252 Descending New York Center
Mon 06:01:52 PM 40.3078 -76.0567 225° Southwest 407 468 20,000  Level New York Center
Mon 06:02:52 PM 40.2261 -76.1564 223° Southwest 402 463 20,000 -541 Level New York Center
Mon 06:03:54 PM 40.1508 -76.2539 225° Southwest 397 457 18,900 -1,008 Descending New York Center
Mon 06:04:51 PM 40.0872 -76.3656 233° Southwest 387 445 18,000 -712 Descending New York Center
Mon 06:05:52 PM 40.0314 -76.4831 238° Southwest 387 445 17,500 -747 Descending New York Center
Mon 06:08:00 PM 39.9683 -76.5961 241° Southwest  Level FlightAware Approximate
Mon 06:08:52 PM 39.8667 -76.8333 241° Southwest 373 429 15,000  Level Potomac TRACON
Mon 06:09:52 PM 39.8167 -76.9500 241° Southwest 373 429 14,900 -1,000 Descending Potomac TRACON
Mon 06:10:52 PM 39.7667 -77.0667 241° Southwest 367 422 13,000 -1,950 Descending Potomac TRACON
Mon 06:11:52 PM 39.7167 -77.1667 237° Southwest 357 411 11,000 -1,500 Descending Potomac TRACON
Mon 06:12:52 PM 39.6500 -77.2833 233° Southwest 350 403 10,000 -650 Descending Potomac TRACON
Mon 06:13:52 PM 39.5833 -77.3333 210° Southwest 287 330 9,700 -1,091 Descending Potomac TRACON
Mon 06:14:53 PM 39.5167 -77.3500 191° South 264 304 7,800 -1,388 Descending Potomac TRACON
Mon 06:15:53 PM 39.4500 -77.3667 191° South 255 293 6,900 -933 Descending Potomac TRACON
Mon 06:17:00 PM 39.3449 -77.3500 180° South  Level FlightAware Approximate
Mon 06:17:53 PM 39.3000 -77.3667 180° South 264 304 5,000  Level Potomac TRACON
Mon 06:18:53 PM 39.2333 -77.3667 180° South 260 299 4,600 -500 Descending Potomac TRACON
Mon 06:19:53 PM 39.1500 -77.3500 171° South 249 287 4,000 -339 Descending Potomac TRACON
Mon 06:21:00 PM 39.0352 -77.3500 180° South  Level FlightAware Approximate
Mon 06:23:54 PM 38.8667 -77.3667 349° North 250 288 2,900  Level Potomac TRACON
Mon 06:24:54 PM 38.8000 -77.3667 180° South 220 253 3,000  Climbing Potomac TRACON
Mon 06:25:54 PM 38.7667 -77.4167 229° Southwest 223 257 2,900  Descending Potomac TRACON
Mon 06:26:54 PM 38.7833 -77.4667 293° West 191 220 3,000 -497 Climbing Potomac TRACON
Mon 06:28:00 PM 38.9333 -77.4500 349° North  Level FlightAware Approximate
Mon 06:28:00 PM 38.8867 -77.4383 349° North  Level FlightAware Approximate
Mon 06:28:55 PM 38.8833 -77.4667 349° North 136 157 1,400  Level Potomac TRACON
Mon 06:29:00 PM 38.9474 -77.4599 349° North  Level Estimated
Mon 06:30:00 PM 38.9333 -77.4500 349° North  Level FlightAware Approximate

Login

Don't have an account? Register now (free) for customized features, flight alerts, and more!